createdAt,value
2018-07-10T00:14:08.090Z,17.3
2018-07-10T00:17:04.016Z,17.5
2018-07-10T00:20:00.477Z,17.4
2018-07-10T00:22:59.282Z,17.4
2018-07-10T00:25:50.882Z,17.5
2018-07-10T00:28:46.480Z,17.5
2018-07-10T00:31:46.272Z,17.4
2018-07-10T00:34:37.945Z,17.4
2018-07-10T00:37:33.655Z,17.3
2018-07-10T00:40:29.312Z,17.2
2018-07-10T00:46:20.661Z,17.1
2018-07-10T00:49:19.252Z,17.1
2018-07-10T00:52:11.966Z,17.1
2018-07-10T00:55:10.593Z,17.1
2018-07-10T00:58:03.298Z,17
2018-07-10T01:00:58.950Z,17
2018-07-10T01:03:54.609Z,16.8
2018-07-10T01:06:50.251Z,16.9
2018-07-10T01:09:46.122Z,16.9
2018-07-10T01:12:51.108Z,16.7
2018-07-10T01:15:37.231Z,16.7
2018-07-10T01:18:32.911Z,16.7
2018-07-10T01:21:29.222Z,16.7
2018-07-10T01:24:27.194Z,16.6
2018-07-10T01:27:19.788Z,16.5
2018-07-10T01:33:10.996Z,16.4
2018-07-10T01:36:06.597Z,16.5
2018-07-10T01:39:11.796Z,16.4
2018-07-10T01:41:57.831Z,16.4
2018-07-10T01:44:53.440Z,16.4
2018-07-10T01:50:44.898Z,16.4
2018-07-10T01:53:40.268Z,16.3
2018-07-10T01:56:36.102Z,16.3
2018-07-10T02:02:27.342Z,16.1
2018-07-10T02:05:22.713Z,16.3
2018-07-10T02:08:18.537Z,16.3
2018-07-10T02:11:14.099Z,16.2
2018-07-10T02:14:09.718Z,16.1
2018-07-10T02:17:05.049Z,16.1
2018-07-10T02:20:00.861Z,16.1
2018-07-10T02:22:56.185Z,16
2018-07-10T02:25:51.776Z,16.1
2018-07-10T02:28:51.109Z,16
2018-07-10T02:34:38.526Z,15.9
2018-07-10T02:37:36.836Z,15.9
2018-07-10T02:43:28.098Z,15.8
2018-07-10T02:49:16.347Z,15.8
2018-07-10T02:55:07.645Z,15.7
2018-07-10T02:58:03.157Z,15.7
2018-07-10T03:00:58.677Z,15.6
2018-07-10T03:06:49.520Z,15.5
2018-07-10T03:12:40.675Z,15.5
2018-07-10T03:24:25.708Z,15.4
2018-07-10T03:30:14.141Z,15.7
2018-07-10T03:33:09.682Z,15.7
2018-07-10T03:36:05.279Z,15.6
2018-07-10T03:39:01.091Z,15.5
2018-07-10T03:41:56.447Z,15.5
2018-07-10T03:44:52.017Z,15.5
2018-07-10T03:47:47.834Z,15.3
2018-07-10T03:50:46.947Z,15.2
2018-07-10T03:56:34.330Z,15.4
2018-07-10T03:59:29.868Z,15.4
2018-07-10T04:05:20.975Z,15.4
2018-07-10T04:11:12.113Z,15.3
2018-07-10T04:14:07.683Z,15.3
2018-07-10T04:19:59.005Z,15.2
2018-07-10T04:22:54.356Z,15.3
2018-07-10T04:25:49.890Z,15.4
2018-07-10T04:28:48.624Z,15.4
2018-07-10T04:31:41.003Z,15.3
2018-07-10T04:34:36.535Z,15.3
2018-07-10T04:40:27.945Z,15.3
2018-07-10T04:43:24.280Z,15.4
2018-07-10T04:46:21.654Z,15.5
2018-07-10T04:49:14.545Z,15.6
2018-07-10T04:52:10.094Z,15.4
2018-07-10T04:55:05.680Z,15.5
2018-07-10T04:58:04.296Z,15.6
2018-07-10T05:00:56.889Z,15.6
2018-07-10T05:03:52.497Z,15.7
2018-07-10T05:06:48.115Z,15.7
2018-07-10T05:09:47.451Z,15.8
2018-07-10T05:12:39.339Z,15.8
2018-07-10T05:18:31.590Z,15.9
2018-07-10T05:21:26.203Z,15.8
2018-07-10T05:24:22.050Z,15.6
2018-07-10T05:27:17.444Z,15.6
2018-07-10T05:30:13.067Z,15.8
2018-07-10T05:36:04.314Z,15.8
2018-07-10T05:38:59.974Z,16
2018-07-10T05:41:58.388Z,16
2018-07-10T05:44:51.297Z,16.1
2018-07-10T05:47:46.942Z,16.1
2018-07-10T05:50:42.591Z,16.3
2018-07-10T05:53:38.267Z,16.3
2018-07-10T05:56:33.921Z,16.1
2018-07-10T06:05:20.993Z,16.2
2018-07-10T06:14:08.608Z,16.2
2018-07-10T06:17:04.074Z,16.3
2018-07-10T06:19:59.450Z,16.4
2018-07-10T06:31:42.338Z,16.8
2018-07-10T06:34:37.921Z,17
2018-07-10T06:40:29.697Z,17.6
2018-07-10T06:49:20.125Z,19.9
2018-07-10T07:09:49.937Z,20.1
2018-07-10T07:12:46.042Z,20
2018-07-10T07:18:41.049Z,20
2018-07-10T07:21:37.855Z,19.9
2018-07-10T07:24:30.485Z,20.1
2018-07-10T07:27:26.625Z,19.9
2018-07-10T07:30:22.674Z,19.9
2018-07-10T07:33:22.408Z,19.9
2018-07-10T07:36:14.846Z,19.7
2018-07-10T07:42:07.007Z,19.6
2018-07-10T07:45:03.016Z,19.5
2018-07-10T07:50:54.999Z,19.6
2018-07-10T07:53:51.289Z,19.5
2018-07-10T07:56:47.059Z,19.5
2018-07-10T08:08:30.948Z,19.9
2018-07-10T08:11:28.081Z,20.1
2018-07-10T08:14:23.376Z,20.3
2018-07-10T08:17:20.227Z,20.6
2018-07-10T08:26:07.518Z,20.7
2018-07-10T08:29:06.568Z,20.7
2018-07-10T08:37:51.900Z,19.9
2018-07-10T08:40:48.133Z,19.9
2018-07-10T08:43:43.682Z,20
2018-07-10T08:49:38.663Z,19.8
2018-07-10T08:55:27.504Z,19.7
2018-07-10T09:10:07.158Z,19.3
2018-07-10T09:15:58.971Z,19.5
2018-07-10T09:21:51.067Z,19.6
2018-07-10T09:24:46.741Z,19.7
2018-07-10T09:27:42.671Z,19.7
2018-07-10T09:39:26.248Z,20
2018-07-10T09:45:18.256Z,20.1
2018-07-10T09:48:17.174Z,20.1
2018-07-10T09:51:10.781Z,20
2018-07-10T09:54:06.007Z,20.2
2018-07-10T09:57:01.955Z,20.3
2018-07-10T10:00:03.753Z,20.6
2018-07-10T10:02:53.745Z,20.6
2018-07-10T10:05:49.672Z,20.9
2018-07-10T10:08:46.139Z,20.7
2018-07-10T10:11:42.670Z,20.9
2018-07-10T10:14:37.635Z,20.7
2018-07-10T10:17:33.615Z,20.7
2018-07-10T10:20:29.593Z,20.9
2018-07-10T10:23:25.584Z,21
2018-07-10T10:26:21.772Z,20.4
2018-07-10T10:29:17.494Z,20.5
2018-07-10T10:32:13.471Z,20.7
2018-07-10T10:35:09.404Z,20.8
2018-07-10T10:38:05.347Z,20.8
2018-07-10T10:41:01.285Z,20.9
2018-07-10T10:43:57.245Z,20.7
2018-07-10T10:46:53.851Z,20.8
2018-07-10T10:49:49.141Z,20.6
2018-07-10T10:52:45.028Z,21
2018-07-10T10:55:41.300Z,21.1
2018-07-10T11:01:33.277Z,21.5
2018-07-10T11:04:29.289Z,21.7
2018-07-10T11:07:25.075Z,21.7
2018-07-10T11:10:21.101Z,21.6
2018-07-10T11:13:17.156Z,21.4
2018-07-10T11:16:13.175Z,21.3
2018-07-10T11:19:09.189Z,21.2
2018-07-10T11:22:05.228Z,21.2
2018-07-10T11:25:01.255Z,21.3
2018-07-10T11:31:02.078Z,21.3
2018-07-10T11:33:49.357Z,21.1
2018-07-10T11:36:45.580Z,20.9
2018-07-10T11:39:44.352Z,20.9
2018-07-10T11:42:37.374Z,21
2018-07-10T11:45:37.486Z,20.9
2018-07-10T11:48:29.363Z,21
2018-07-10T11:51:25.464Z,20.9
2018-07-10T11:54:21.368Z,21
2018-07-10T11:57:27.177Z,20.9
2018-07-10T12:00:13.379Z,20.9
2018-07-10T12:03:09.611Z,21.1
2018-07-10T12:06:05.398Z,21.1
2018-07-10T12:09:01.398Z,21.3
2018-07-10T12:11:57.397Z,21.3
2018-07-10T12:14:58.914Z,21.4
2018-07-10T12:17:54.909Z,21.5
2018-07-10T12:20:45.554Z,21.6
2018-07-10T12:23:41.484Z,21.7
2018-07-10T12:26:38.265Z,21.6
2018-07-10T12:29:39.213Z,21.7
2018-07-10T12:32:29.620Z,21.9
2018-07-10T12:35:25.658Z,21.8
2018-07-10T12:38:21.683Z,21.7
2018-07-10T12:41:17.729Z,21.6
2018-07-10T12:44:13.769Z,21.7
2018-07-10T12:47:09.814Z,21.7
2018-07-10T12:50:05.838Z,21.7
2018-07-10T12:53:01.898Z,21.7
2018-07-10T12:55:57.936Z,21.7
2018-07-10T12:58:53.974Z,21.9
2018-07-10T13:01:50.026Z,21.9
2018-07-10T13:04:46.065Z,21.9
2018-07-10T13:07:42.112Z,22
2018-07-10T13:10:38.162Z,21.9
2018-07-10T13:13:34.217Z,21.9
2018-07-10T13:16:30.260Z,21.9
2018-07-10T13:19:26.268Z,21.7
2018-07-10T13:22:22.294Z,21.7
2018-07-10T13:25:18.306Z,21.8
2018-07-10T13:28:14.335Z,21.8
2018-07-10T13:31:10.386Z,21.9
2018-07-10T13:34:06.428Z,21.9
2018-07-10T13:37:02.479Z,21.8
2018-07-10T13:39:58.557Z,21.7
2018-07-10T13:42:54.673Z,21.7
2018-07-10T13:48:50.533Z,21.9
2018-07-10T13:51:42.887Z,21.9
2018-07-10T13:54:39.180Z,21.9
2018-07-10T13:57:35.028Z,21.9
2018-07-10T14:00:31.091Z,22
2018-07-10T14:03:27.132Z,21.9
2018-07-10T14:06:23.234Z,21.9
2018-07-10T14:09:19.258Z,22.1
2018-07-10T14:12:15.369Z,22
2018-07-10T14:18:07.424Z,21.9
2018-07-10T14:21:04.169Z,21.8
2018-07-10T14:23:59.580Z,21.9
2018-07-10T14:26:55.667Z,21.9
2018-07-10T14:29:51.777Z,21.8
2018-07-10T14:32:47.837Z,21.9
2018-07-10T14:35:46.932Z,21.8
2018-07-10T14:38:40.012Z,21.8
2018-07-10T14:41:37.084Z,21.9
2018-07-10T14:44:34.870Z,21.9
2018-07-10T14:47:28.236Z,21.9
2018-07-10T14:50:24.266Z,21.9
2018-07-10T14:53:20.340Z,21.9
2018-07-10T14:56:16.409Z,21.9
2018-07-10T14:59:12.457Z,21.9
2018-07-10T15:02:08.515Z,22
2018-07-10T15:05:04.523Z,21.9
2018-07-10T15:08:00.728Z,21.7
2018-07-10T15:10:56.905Z,21.7
2018-07-10T15:13:52.799Z,21.9
2018-07-10T15:19:45.623Z,21.8
2018-07-10T15:22:42.026Z,21.5
2018-07-10T15:25:37.099Z,21.6
2018-07-10T15:28:36.649Z,21.6
2018-07-10T15:31:32.043Z,21.6
2018-07-10T15:34:25.283Z,21.5
2018-07-10T15:37:22.371Z,21.7
2018-07-10T15:40:17.411Z,21.9
2018-07-10T15:43:16.437Z,21.8
2018-07-10T15:46:12.308Z,21.7
2018-07-10T15:49:05.656Z,21.8
2018-07-10T15:52:01.751Z,21.9
2018-07-10T15:54:57.815Z,21.9
2018-07-10T15:57:53.889Z,21.6
2018-07-10T16:00:49.922Z,21.2
2018-07-10T16:03:45.948Z,20.7
2018-07-10T16:06:41.921Z,20.6
2018-07-10T16:09:37.885Z,20.4
2018-07-10T16:12:33.866Z,20.1
2018-07-10T16:15:29.796Z,20.1
2018-07-10T16:18:25.737Z,20.1
2018-07-10T16:21:21.671Z,19.9
2018-07-10T16:24:17.594Z,19.9
2018-07-10T16:27:13.543Z,19.6
2018-07-10T16:30:09.474Z,19.6
2018-07-10T16:33:05.400Z,19.9
2018-07-10T16:36:01.308Z,19.9
2018-07-10T16:38:57.219Z,19.9
2018-07-10T16:41:53.184Z,19.9
2018-07-10T16:44:49.206Z,19.7
2018-07-10T16:47:44.949Z,19.8
2018-07-10T16:50:40.828Z,19.8
2018-07-10T16:53:36.753Z,19.7
2018-07-10T16:56:32.568Z,19.6
2018-07-10T16:59:28.434Z,19.4
2018-07-10T17:02:24.303Z,19.2
2018-07-10T17:05:20.137Z,18.9
2018-07-10T17:08:15.958Z,18.8
2018-07-10T17:11:11.772Z,18.9
2018-07-10T17:14:07.541Z,18.8
2018-07-10T17:17:03.327Z,19
2018-07-10T17:19:59.159Z,19
2018-07-10T17:22:54.956Z,19.1
2018-07-10T17:25:50.755Z,19
2018-07-10T17:28:46.546Z,18.9
2018-07-10T17:31:42.320Z,18.6
2018-07-10T17:34:38.080Z,18.7
2018-07-10T17:37:33.871Z,18.6
2018-07-10T17:40:29.649Z,18.5
2018-07-10T17:43:25.407Z,18.5
2018-07-10T17:46:21.162Z,18.3
2018-07-10T17:49:16.914Z,18.3
2018-07-10T17:52:12.658Z,18.3
2018-07-10T17:55:08.382Z,18.2
2018-07-10T17:58:04.121Z,18.1
2018-07-10T18:01:00.057Z,18.1
2018-07-10T18:03:55.652Z,18.1
2018-07-10T18:06:51.428Z,18.1
2018-07-10T18:09:47.230Z,18
2018-07-10T18:12:43.021Z,18
2018-07-10T18:15:38.792Z,17.7
2018-07-10T18:18:34.549Z,17.5
2018-07-10T18:21:30.309Z,17.4
2018-07-10T18:24:26.062Z,17.5
2018-07-10T18:27:21.787Z,17.4
2018-07-10T18:30:17.604Z,17.3
2018-07-10T18:33:13.272Z,17.1
2018-07-10T18:39:04.762Z,17.2
2018-07-10T18:42:00.551Z,17.3
2018-07-10T18:44:56.234Z,17.2
2018-07-10T18:47:51.969Z,17
2018-07-10T18:50:47.705Z,17.1
2018-07-10T18:53:43.450Z,17.1
2018-07-10T18:56:39.157Z,17.1
2018-07-10T18:59:34.820Z,17
2018-07-10T19:02:30.522Z,17.1
2018-07-10T19:05:26.175Z,17
2018-07-10T19:08:22.064Z,16.9
2018-07-10T19:11:17.557Z,16.9
2018-07-10T19:14:13.252Z,16.8
2018-07-10T19:17:08.951Z,16.9
2018-07-10T19:20:04.632Z,17
2018-07-10T19:23:00.324Z,16.9
2018-07-10T19:25:55.964Z,16.9
2018-07-10T19:28:51.603Z,16.9
2018-07-10T19:31:47.253Z,16.9
2018-07-10T19:37:38.578Z,17
2018-07-10T19:40:34.204Z,16.9
2018-07-10T19:43:29.831Z,16.7
2018-07-10T19:46:25.454Z,16.6
2018-07-10T19:49:21.092Z,16.4
2018-07-10T19:52:16.710Z,16.4
2018-07-10T19:55:12.322Z,16.4
2018-07-10T20:01:03.530Z,16.4
2018-07-10T20:03:59.140Z,16.4
2018-07-10T20:06:54.744Z,16.4
2018-07-10T20:09:50.381Z,16.3
2018-07-10T20:12:46.087Z,16.4
2018-07-10T20:15:41.632Z,16.3
2018-07-10T20:18:37.271Z,16.3
2018-07-10T20:24:28.531Z,16.2
2018-07-10T20:27:24.092Z,16.1
2018-07-10T20:30:22.524Z,16
2018-07-10T20:33:15.580Z,16.1
2018-07-10T20:36:10.896Z,16
2018-07-10T20:39:06.494Z,16
2018-07-10T20:42:02.087Z,16
2018-07-10T20:44:57.701Z,16
2018-07-10T20:47:53.235Z,15.9
2018-07-10T20:50:48.828Z,15.9
2018-07-10T20:53:44.556Z,15.9
2018-07-10T20:56:40.075Z,15.9
2018-07-10T20:59:35.718Z,15.7
2018-07-10T21:02:31.357Z,15.8
2018-07-10T21:08:22.508Z,15.6
2018-07-10T21:14:13.696Z,15.7
2018-07-10T21:17:12.061Z,15.8
2018-07-10T21:20:05.099Z,15.6
2018-07-10T21:23:01.137Z,15.8
2018-07-10T21:25:56.077Z,15.6
2018-07-10T21:28:51.633Z,15.7
2018-07-10T21:40:34.047Z,15.5
2018-07-10T21:43:32.604Z,15.5
2018-07-10T21:46:28.197Z,15.5
2018-07-10T21:49:20.797Z,15.4
2018-07-10T21:52:19.253Z,15.5
2018-07-10T21:58:07.547Z,15.5
2018-07-10T22:01:06.553Z,15.5
2018-07-10T22:06:54.312Z,15.5
2018-07-10T22:09:49.790Z,15.5
2018-07-10T22:15:41.016Z,15.4
2018-07-10T22:21:53.225Z,15.5
2018-07-10T22:27:23.307Z,15.4
2018-07-10T22:30:22.309Z,15.5
2018-07-10T22:33:17.463Z,15.5
2018-07-10T22:36:10.047Z,15.5
2018-07-10T22:42:01.238Z,15.4
2018-07-10T22:45:06.205Z,15.4
2018-07-10T22:47:52.384Z,15.4
2018-07-10T22:50:47.964Z,15.5
2018-07-10T22:53:46.609Z,15.5
2018-07-10T22:56:39.092Z,15.4
2018-07-10T22:59:34.653Z,15.3
2018-07-10T23:02:30.483Z,15.4
2018-07-10T23:05:25.868Z,15.4
2018-07-10T23:08:21.458Z,15.4
2018-07-10T23:11:18.067Z,15.4
2018-07-10T23:14:21.659Z,15.3
2018-07-10T23:17:08.196Z,15.2
2018-07-10T23:20:03.966Z,15.3
2018-07-10T23:22:59.351Z,15.2
2018-07-10T23:28:59.555Z,15.3
2018-07-10T23:34:45.415Z,15.1
2018-07-10T23:37:37.194Z,15.2
2018-07-10T23:40:36.301Z,15
2018-07-10T23:43:29.507Z,15.1
2018-07-10T23:49:26.338Z,15.1
2018-07-10T23:52:18.214Z,15
2018-07-10T23:55:13.566Z,14.9
2018-07-10T23:58:09.992Z,15
